In Rescue
 
Open Full Screen Window  High Contrast Mode
July 23, 2019 12:44 AM EDT
Weather Information
Wind Direction
  ---
Wind Speed
  00 kt (0 mph)
Wind Gust
  00 kt (0 mph)
Altimeter
30.01 in
Visibility
10 SM
Temperature
16° C
61° F
Dewpoint
15° C
59° F
Humidity
94%
Sky Condition
Clear
VFR

METAR KDUH 230444Z AUTO 00000KT 10SM CLR 16/15 A3001 RMK AO2 T01560151

FAA Disclaimer: The data displayed is for advisory purposes only and is not to be used for flight planning or operations.